createdAt,value
2023-04-30T00:01:46.692Z,101493.00
2023-04-30T00:04:14.497Z,101482.00
2023-04-30T00:06:42.460Z,101494.00
2023-04-30T00:09:10.273Z,101502.00
2023-04-30T00:11:39.356Z,101494.00
2023-04-30T00:14:07.343Z,101496.00
2023-04-30T00:16:35.152Z,101495.00
2023-04-30T00:19:02.897Z,101486.00
2023-04-30T00:21:30.636Z,101464.00
2023-04-30T00:24:00.344Z,101498.00
2023-04-30T00:26:28.178Z,101505.00
2023-04-30T00:28:57.313Z,101502.00
2023-04-30T00:31:25.154Z,101509.00
2023-04-30T00:33:52.951Z,101508.00
2023-04-30T00:36:20.724Z,101511.00
2023-04-30T00:38:48.471Z,101506.00
2023-04-30T00:41:16.688Z,101507.00
2023-04-30T00:43:44.443Z,101513.00
2023-04-30T00:46:13.579Z,101505.00
2023-04-30T00:48:41.379Z,101496.00
2023-04-30T00:51:09.473Z,101522.00
2023-04-30T00:53:38.545Z,101508.00
2023-04-30T00:56:07.470Z,101520.00
2023-04-30T00:58:35.442Z,101515.00
2023-04-30T01:01:04.134Z,101516.00
2023-04-30T01:03:35.992Z,101516.00
2023-04-30T01:06:04.282Z,101529.00
2023-04-30T01:08:33.128Z,101526.00
2023-04-30T01:11:13.552Z,101524.00
2023-04-30T01:13:50.641Z,101524.00
2023-04-30T01:16:24.012Z,101530.00
2023-04-30T01:18:58.726Z,101532.00
2023-04-30T01:21:30.766Z,101543.00
2023-04-30T01:24:25.704Z,101530.00
2023-04-30T01:27:08.058Z,101537.00
2023-04-30T01:29:41.357Z,101548.00
2023-04-30T01:32:09.176Z,101521.00
2023-04-30T01:34:37.032Z,101543.00
2023-04-30T01:37:17.172Z,101544.00
2023-04-30T01:39:58.292Z,101534.00
2023-04-30T01:42:34.484Z,101544.00
2023-04-30T01:45:25.991Z,101539.00
2023-04-30T01:47:58.630Z,101517.00
2023-04-30T01:50:35.085Z,101546.00
2023-04-30T01:53:06.199Z,101533.00
2023-04-30T01:55:38.425Z,101546.00
2023-04-30T01:58:08.369Z,101555.00
2023-04-30T02:00:37.638Z,101551.00
2023-04-30T02:03:05.962Z,101563.00
2023-04-30T02:05:33.866Z,101560.00
2023-04-30T02:08:01.849Z,101559.00
2023-04-30T02:10:30.700Z,101558.00
2023-04-30T02:12:58.551Z,101556.00
2023-04-30T02:15:26.445Z,101561.00
2023-04-30T02:17:55.720Z,101571.00
2023-04-30T02:20:23.589Z,101565.00
2023-04-30T02:22:52.237Z,101552.00
2023-04-30T02:25:20.048Z,101553.00
2023-04-30T02:27:47.893Z,101566.00
2023-04-30T02:30:15.724Z,101544.00
2023-04-30T02:32:43.529Z,101556.00
2023-04-30T02:35:12.637Z,101567.00
2023-04-30T02:37:40.593Z,101560.00
2023-04-30T02:40:09.663Z,101556.00
2023-04-30T02:42:37.601Z,101564.00
2023-04-30T02:45:06.104Z,101555.00
2023-04-30T02:47:34.008Z,101559.00
2023-04-30T02:50:01.740Z,101562.00
2023-04-30T02:52:30.882Z,101558.00
2023-04-30T02:54:58.585Z,101562.00
2023-04-30T02:57:26.530Z,101558.00
2023-04-30T02:59:54.329Z,101568.00
2023-04-30T03:02:23.660Z,101573.00
2023-04-30T03:04:51.784Z,101577.00
2023-04-30T03:07:19.875Z,101578.00
2023-04-30T03:09:48.949Z,101580.00
2023-04-30T03:12:16.680Z,101584.00
2023-04-30T03:14:44.392Z,101573.00
2023-04-30T03:17:12.104Z,101578.00
2023-04-30T03:19:39.836Z,101584.00
2023-04-30T03:22:07.569Z,101579.00
2023-04-30T03:24:35.304Z,101549.00
2023-04-30T03:27:04.621Z,101587.00
2023-04-30T03:29:32.323Z,101590.00
2023-04-30T03:32:00.089Z,101582.00
2023-04-30T03:34:28.004Z,101586.00
2023-04-30T03:36:55.798Z,101581.00
2023-04-30T03:39:23.562Z,101586.00
2023-04-30T03:41:51.388Z,101562.00
2023-04-30T03:44:20.983Z,101575.00
2023-04-30T03:46:48.910Z,101592.00
2023-04-30T03:49:16.623Z,101590.00
2023-04-30T03:51:44.346Z,101599.00
2023-04-30T03:54:12.055Z,101604.00
2023-04-30T03:56:41.128Z,101602.00
2023-04-30T03:59:09.046Z,101592.00
2023-04-30T04:01:38.665Z,101601.00
2023-04-30T04:04:06.648Z,101609.00
2023-04-30T04:06:34.438Z,101609.00
2023-04-30T04:09:02.179Z,101612.00
2023-04-30T04:11:30.058Z,101622.00
2023-04-30T04:13:57.820Z,101624.00
2023-04-30T04:16:26.046Z,101627.00
2023-04-30T04:18:55.279Z,101623.00
2023-04-30T04:21:23.040Z,101629.00
2023-04-30T04:23:50.804Z,101634.00
2023-04-30T04:26:19.633Z,101631.00
2023-04-30T04:28:48.406Z,101625.00
2023-04-30T04:31:16.611Z,101627.00
2023-04-30T04:33:44.368Z,101631.00
2023-04-30T04:36:13.475Z,101635.00
2023-04-30T04:38:41.960Z,101605.00
2023-04-30T04:41:09.685Z,101627.00
2023-04-30T04:43:37.533Z,101638.00
2023-04-30T04:46:05.324Z,101637.00
2023-04-30T04:48:33.098Z,101643.00
2023-04-30T04:51:00.805Z,101642.00
2023-04-30T04:53:29.932Z,101646.00
2023-04-30T04:55:57.624Z,101662.00
2023-04-30T04:58:25.423Z,101651.00
2023-04-30T05:00:53.524Z,101653.00
2023-04-30T05:03:21.887Z,101662.00
2023-04-30T05:05:49.855Z,101649.00
2023-04-30T05:08:17.750Z,101657.00
2023-04-30T05:10:46.949Z,101654.00
2023-04-30T05:13:14.772Z,101658.00
2023-04-30T05:15:42.498Z,101653.00
2023-04-30T05:18:10.322Z,101660.00
2023-04-30T05:20:38.078Z,101663.00
2023-04-30T05:23:05.835Z,101664.00
2023-04-30T05:25:33.514Z,101670.00
2023-04-30T05:28:03.266Z,101670.00
2023-04-30T05:30:31.113Z,101664.00
2023-04-30T05:32:58.855Z,101668.00
2023-04-30T05:35:26.719Z,101667.00
2023-04-30T05:37:54.458Z,101680.00
2023-04-30T05:40:22.294Z,101677.00
2023-04-30T05:42:50.098Z,101645.00
2023-04-30T05:45:19.447Z,101671.00
2023-04-30T05:47:47.271Z,101677.00
2023-04-30T05:50:15.238Z,101675.00
2023-04-30T05:52:43.108Z,101683.00
2023-04-30T05:55:11.533Z,101659.00
2023-04-30T05:57:39.307Z,101680.00
2023-04-30T06:00:08.367Z,101677.00
2023-04-30T06:02:37.591Z,101685.00
2023-04-30T06:05:06.158Z,101685.00
2023-04-30T06:07:34.021Z,101690.00
2023-04-30T06:10:01.720Z,101691.00
2023-04-30T06:12:29.548Z,101691.00
2023-04-30T06:14:57.467Z,101692.00
2023-04-30T06:17:25.296Z,101682.00
2023-04-30T06:19:55.672Z,101687.00
2023-04-30T06:22:23.664Z,101685.00
2023-04-30T06:24:51.390Z,101674.00
2023-04-30T06:27:19.150Z,101695.00
2023-04-30T06:29:46.839Z,101700.00
2023-04-30T06:32:14.598Z,101705.00
2023-04-30T06:34:42.321Z,101692.00
2023-04-30T06:37:11.348Z,101694.00
2023-04-30T06:39:39.064Z,101701.00
2023-04-30T06:42:06.734Z,101701.00
2023-04-30T06:44:34.414Z,101692.00
2023-04-30T06:47:02.592Z,101690.00
2023-04-30T06:49:30.416Z,101699.00
2023-04-30T06:51:58.569Z,101689.00
2023-04-30T06:54:27.808Z,101695.00
2023-04-30T06:56:55.495Z,101691.00
2023-04-30T06:59:23.253Z,101691.00
2023-04-30T07:01:51.192Z,101700.00
2023-04-30T07:04:19.982Z,101685.00
2023-04-30T07:06:47.664Z,101690.00
2023-04-30T07:09:16.209Z,101694.00
2023-04-30T07:11:45.292Z,101700.00
2023-04-30T07:14:13.164Z,101696.00
2023-04-30T07:16:40.987Z,101700.00
2023-04-30T07:19:08.752Z,101701.00
2023-04-30T07:21:37.421Z,101709.00
2023-04-30T07:24:05.777Z,101720.00
2023-04-30T07:26:33.535Z,101716.00
2023-04-30T07:29:03.739Z,101687.00
2023-04-30T07:31:32.207Z,101716.00
2023-04-30T07:34:00.383Z,101724.00
2023-04-30T07:36:28.249Z,101729.00
2023-04-30T07:38:55.962Z,101725.00
2023-04-30T07:41:25.191Z,101714.00
2023-04-30T07:43:53.207Z,101723.00
2023-04-30T07:46:22.423Z,101717.00
2023-04-30T07:48:50.174Z,101724.00
2023-04-30T07:51:18.424Z,101714.00
2023-04-30T07:53:47.176Z,101712.00
2023-04-30T07:56:14.949Z,101716.00
2023-04-30T07:58:42.823Z,101715.00
2023-04-30T08:01:10.536Z,101718.00
2023-04-30T08:03:39.755Z,101710.00
2023-04-30T08:06:08.446Z,101704.00
2023-04-30T08:08:36.214Z,101716.00
2023-04-30T08:11:03.955Z,101715.00
2023-04-30T08:13:31.908Z,101720.00
2023-04-30T08:15:59.661Z,101728.00
2023-04-30T08:18:27.438Z,101723.00
2023-04-30T08:20:56.592Z,101724.00
2023-04-30T08:23:24.392Z,101723.00
2023-04-30T08:25:52.735Z,101717.00
2023-04-30T08:28:20.443Z,101719.00
2023-04-30T08:30:48.428Z,101716.00
2023-04-30T08:33:16.206Z,101709.00
2023-04-30T08:35:44.104Z,101722.00
2023-04-30T08:38:13.305Z,101717.00
2023-04-30T08:43:13.375Z,101705.00
2023-04-30T08:45:41.730Z,101709.00
2023-04-30T08:48:14.071Z,101714.00
2023-04-30T08:50:41.829Z,101702.00
2023-04-30T08:53:11.865Z,101691.00
2023-04-30T08:55:41.623Z,101705.00
2023-04-30T08:58:10.397Z,101697.00
2023-04-30T09:00:39.719Z,101701.00
2023-04-30T09:03:08.521Z,101692.00
2023-04-30T09:05:37.535Z,101697.00
2023-04-30T09:08:06.222Z,101697.00
2023-04-30T09:10:35.039Z,101695.00
2023-04-30T09:13:09.365Z,101696.00
2023-04-30T09:15:38.657Z,101689.00
2023-04-30T09:18:11.777Z,101703.00
2023-04-30T09:20:54.284Z,101691.00
2023-04-30T09:23:22.379Z,101695.00
2023-04-30T09:25:50.194Z,101696.00
2023-04-30T09:28:23.606Z,101698.00
2023-04-30T09:30:52.339Z,101691.00
2023-04-30T09:33:20.669Z,101708.00
2023-04-30T09:35:48.924Z,101686.00
2023-04-30T09:38:30.654Z,101703.00
2023-04-30T09:41:00.072Z,101696.00
2023-04-30T09:43:29.634Z,101685.00
2023-04-30T09:45:59.692Z,101698.00
2023-04-30T09:48:28.690Z,101679.00
2023-04-30T09:50:56.830Z,101678.00
2023-04-30T09:53:24.566Z,101677.00
2023-04-30T09:55:54.522Z,101684.00
2023-04-30T09:58:26.979Z,101677.00
2023-04-30T10:01:00.188Z,101680.00
2023-04-30T10:03:28.924Z,101679.00
2023-04-30T10:05:56.865Z,101678.00
2023-04-30T10:08:28.693Z,101670.00
2023-04-30T10:11:01.349Z,101655.00
2023-04-30T10:13:32.714Z,101660.00
2023-04-30T10:16:13.082Z,101659.00
2023-04-30T10:18:43.301Z,101666.00
2023-04-30T10:21:15.679Z,101661.00
2023-04-30T10:23:43.694Z,101651.00
2023-04-30T10:26:12.226Z,101660.00
2023-04-30T10:28:41.015Z,101671.00
2023-04-30T10:31:11.538Z,101675.00
2023-04-30T10:33:58.449Z,101673.00
2023-04-30T10:36:33.938Z,101668.00
2023-04-30T10:39:03.615Z,101662.00
2023-04-30T10:41:32.507Z,101663.00
2023-04-30T10:44:05.163Z,101657.00
2023-04-30T10:46:36.590Z,101655.00
2023-04-30T10:49:05.362Z,101644.00
2023-04-30T10:51:56.888Z,101639.00
2023-04-30T10:54:28.615Z,101629.00
2023-04-30T10:57:11.600Z,101638.00
2023-04-30T10:59:39.861Z,101626.00
2023-04-30T11:02:12.177Z,101639.00
2023-04-30T11:05:10.589Z,101635.00
2023-04-30T11:07:39.014Z,101629.00
2023-04-30T11:10:09.508Z,101631.00
2023-04-30T11:12:42.937Z,101626.00
2023-04-30T11:15:16.643Z,101630.00
2023-04-30T11:17:46.451Z,101584.00
2023-04-30T11:20:15.781Z,101619.00
2023-04-30T11:22:43.552Z,101617.00
2023-04-30T11:25:13.740Z,101619.00
2023-04-30T11:27:45.018Z,101615.00
2023-04-30T11:30:15.789Z,101594.00
2023-04-30T11:32:49.460Z,101617.00
2023-04-30T11:35:20.421Z,101616.00
2023-04-30T11:37:49.873Z,101618.00
2023-04-30T11:40:17.764Z,101615.00
2023-04-30T11:42:46.718Z,101589.00
2023-04-30T11:45:17.531Z,101605.00
2023-04-30T11:47:47.915Z,101599.00
2023-04-30T11:50:19.225Z,101597.00
2023-04-30T11:52:51.626Z,101602.00
2023-04-30T11:55:20.933Z,101598.00
2023-04-30T11:57:50.119Z,101588.00
2023-04-30T12:00:20.456Z,101603.00
2023-04-30T12:02:50.974Z,101596.00
2023-04-30T12:05:20.248Z,101594.00
2023-04-30T12:07:52.588Z,101593.00
2023-04-30T12:10:21.205Z,101590.00
2023-04-30T12:12:51.990Z,101582.00
2023-04-30T12:15:23.162Z,101587.00
2023-04-30T12:17:52.349Z,101570.00
2023-04-30T12:20:21.966Z,101579.00
2023-04-30T12:22:50.301Z,101578.00
2023-04-30T12:25:20.713Z,101578.00
2023-04-30T12:27:49.993Z,101571.00
2023-04-30T12:30:21.335Z,101577.00
2023-04-30T12:32:52.202Z,101568.00
2023-04-30T12:35:21.224Z,101573.00
2023-04-30T12:37:51.252Z,101577.00
2023-04-30T12:40:19.991Z,101576.00
2023-04-30T12:42:47.947Z,101574.00
2023-04-30T12:45:45.721Z,101577.00
2023-04-30T12:48:16.184Z,101577.00
2023-04-30T12:50:44.102Z,101573.00
2023-04-30T12:53:11.820Z,101570.00
2023-04-30T12:55:39.789Z,101563.00
2023-04-30T12:58:08.854Z,101565.00
2023-04-30T13:00:50.232Z,101558.00
2023-04-30T13:03:20.927Z,101530.00
2023-04-30T13:05:51.516Z,101542.00
2023-04-30T13:08:20.603Z,101547.00
2023-04-30T13:10:49.555Z,101551.00
2023-04-30T13:13:20.187Z,101552.00
2023-04-30T13:15:48.793Z,101535.00
2023-04-30T13:18:16.590Z,101533.00
2023-04-30T13:20:46.160Z,101534.00
2023-04-30T13:23:13.830Z,101529.00
2023-04-30T13:25:42.660Z,101528.00
2023-04-30T13:28:10.444Z,101538.00
2023-04-30T13:30:38.266Z,101532.00
2023-04-30T13:33:06.105Z,101531.00
2023-04-30T13:35:33.840Z,101523.00
2023-04-30T13:38:03.458Z,101514.00
2023-04-30T13:40:31.224Z,101515.00
2023-04-30T13:42:58.904Z,101507.00
2023-04-30T13:45:26.854Z,101509.00
2023-04-30T13:47:54.625Z,101499.00
2023-04-30T13:50:22.467Z,101492.00
2023-04-30T13:52:50.190Z,101493.00
2023-04-30T13:55:19.347Z,101498.00
2023-04-30T13:57:47.153Z,101491.00
2023-04-30T14:00:16.576Z,101484.00
2023-04-30T14:02:44.280Z,101494.00
2023-04-30T14:05:12.017Z,101486.00
2023-04-30T14:07:40.018Z,101487.00
2023-04-30T14:10:08.952Z,101492.00
2023-04-30T14:12:38.450Z,101487.00
2023-04-30T14:15:18.801Z,101478.00
2023-04-30T14:17:46.883Z,101484.00
2023-04-30T14:20:15.058Z,101478.00
2023-04-30T14:22:43.405Z,101464.00
2023-04-30T14:25:12.697Z,101478.00
2023-04-30T14:27:42.240Z,101464.00
2023-04-30T14:30:10.875Z,101466.00
2023-04-30T14:32:38.761Z,101464.00
2023-04-30T14:35:07.731Z,101461.00
2023-04-30T14:37:35.797Z,101457.00
2023-04-30T14:40:05.174Z,101456.00
2023-04-30T14:42:33.726Z,101454.00
2023-04-30T14:45:03.131Z,101455.00
2023-04-30T14:47:30.982Z,101443.00
2023-04-30T14:49:59.289Z,101447.00
2023-04-30T14:52:27.337Z,101433.00
2023-04-30T14:54:56.091Z,101440.00
2023-04-30T14:57:24.042Z,101442.00
2023-04-30T14:59:57.689Z,101442.00
2023-04-30T15:02:27.134Z,101442.00
2023-04-30T15:04:54.878Z,101430.00
2023-04-30T15:07:22.730Z,101427.00
2023-04-30T15:09:50.457Z,101424.00
2023-04-30T15:12:18.338Z,101424.00
2023-04-30T15:14:46.064Z,101415.00
2023-04-30T15:17:13.934Z,101419.00
2023-04-30T15:19:43.494Z,101418.00
2023-04-30T15:22:11.539Z,101410.00
2023-04-30T15:24:39.283Z,101418.00
2023-04-30T15:27:07.146Z,101420.00
2023-04-30T15:29:34.863Z,101415.00
2023-04-30T15:32:02.674Z,101411.00
2023-04-30T15:34:30.702Z,101409.00
2023-04-30T15:37:00.083Z,101415.00
2023-04-30T15:39:28.086Z,101415.00
2023-04-30T15:41:56.020Z,101400.00
2023-04-30T15:44:24.104Z,101398.00
2023-04-30T15:46:52.585Z,101401.00
2023-04-30T15:49:21.184Z,101405.00
2023-04-30T15:51:48.936Z,101402.00
2023-04-30T15:54:18.160Z,101388.00
2023-04-30T15:56:46.103Z,101394.00
2023-04-30T15:59:17.698Z,101398.00
2023-04-30T16:01:47.340Z,101388.00
2023-04-30T16:04:15.293Z,101393.00
2023-04-30T16:06:43.259Z,101391.00
2023-04-30T16:09:11.786Z,101395.00
2023-04-30T16:11:41.376Z,101394.00
2023-04-30T16:14:09.061Z,101378.00
2023-04-30T16:16:36.779Z,101390.00
2023-04-30T16:19:04.704Z,101378.00
2023-04-30T16:21:34.079Z,101380.00
2023-04-30T16:24:03.518Z,101378.00
2023-04-30T16:26:31.480Z,101382.00
2023-04-30T16:29:00.562Z,101373.00
2023-04-30T16:31:28.557Z,101375.00
2023-04-30T16:33:56.398Z,101372.00
2023-04-30T16:36:24.177Z,101372.00
2023-04-30T16:38:51.964Z,101378.00
2023-04-30T16:41:20.666Z,101386.00
2023-04-30T16:43:48.355Z,101372.00
2023-04-30T16:46:17.675Z,101375.00
2023-04-30T16:48:45.520Z,101364.00
2023-04-30T16:51:13.842Z,101369.00
2023-04-30T16:53:41.527Z,101361.00
2023-04-30T16:56:09.289Z,101351.00
2023-04-30T16:58:37.857Z,101362.00
2023-04-30T17:01:05.774Z,101363.00
2023-04-30T17:03:35.439Z,101356.00
2023-04-30T17:06:04.022Z,101348.00
2023-04-30T17:08:31.865Z,101348.00
2023-04-30T17:10:59.606Z,101343.00
2023-04-30T17:13:30.706Z,101345.00
2023-04-30T17:16:01.662Z,101341.00
2023-04-30T17:18:30.200Z,101346.00
2023-04-30T17:20:59.306Z,101338.00
2023-04-30T17:23:27.029Z,101345.00
2023-04-30T17:25:55.545Z,101340.00
2023-04-30T17:28:23.873Z,101336.00
2023-04-30T17:30:52.475Z,101349.00
2023-04-30T17:33:20.304Z,101357.00
2023-04-30T17:35:48.137Z,101351.00
2023-04-30T17:38:17.370Z,101356.00
2023-04-30T17:40:45.334Z,101356.00
2023-04-30T17:43:13.511Z,101359.00
2023-04-30T17:45:41.300Z,101347.00
2023-04-30T17:48:09.132Z,101362.00
2023-04-30T17:50:37.234Z,101352.00
2023-04-30T17:53:04.995Z,101358.00
2023-04-30T17:55:34.061Z,101352.00
2023-04-30T17:58:03.759Z,101351.00
2023-04-30T18:00:31.777Z,101366.00
2023-04-30T18:02:59.563Z,101367.00
2023-04-30T18:05:27.443Z,101361.00
2023-04-30T18:07:55.120Z,101355.00
2023-04-30T18:10:23.041Z,101334.00
2023-04-30T18:12:53.521Z,101348.00
2023-04-30T18:15:21.318Z,101358.00
2023-04-30T18:17:49.063Z,101352.00
2023-04-30T18:20:16.910Z,101344.00
2023-04-30T18:22:44.633Z,101351.00
2023-04-30T18:25:12.993Z,101349.00
2023-04-30T18:27:41.758Z,101344.00
2023-04-30T18:30:11.793Z,101344.00
2023-04-30T18:32:40.570Z,101352.00
2023-04-30T18:35:08.882Z,101347.00
2023-04-30T18:37:36.595Z,101351.00
2023-04-30T18:40:04.918Z,101342.00
2023-04-30T18:42:33.363Z,101350.00
2023-04-30T18:45:01.686Z,101345.00
2023-04-30T18:47:32.909Z,101349.00
2023-04-30T18:50:00.623Z,101339.00
2023-04-30T18:52:28.299Z,101345.00
2023-04-30T18:54:56.019Z,101346.00
2023-04-30T18:57:23.722Z,101342.00
2023-04-30T18:59:51.386Z,101347.00
2023-04-30T19:02:19.278Z,101348.00
2023-04-30T19:04:49.303Z,101348.00
2023-04-30T19:07:17.663Z,101349.00
2023-04-30T19:09:48.496Z,101348.00
2023-04-30T19:12:16.552Z,101351.00
2023-04-30T19:14:45.789Z,101357.00
2023-04-30T19:17:14.815Z,101357.00
2023-04-30T19:19:43.433Z,101347.00
2023-04-30T19:22:12.741Z,101357.00
2023-04-30T19:24:40.447Z,101363.00
2023-04-30T19:27:08.656Z,101347.00
2023-04-30T19:29:39.157Z,101345.00
2023-04-30T19:32:07.391Z,101351.00
2023-04-30T19:34:35.233Z,101350.00
2023-04-30T19:37:03.607Z,101358.00
2023-04-30T19:39:33.984Z,101348.00
2023-04-30T19:42:02.527Z,101351.00
2023-04-30T19:44:30.762Z,101355.00
2023-04-30T19:46:58.485Z,101347.00
2023-04-30T19:49:26.766Z,101349.00
2023-04-30T19:51:54.660Z,101356.00
2023-04-30T19:54:22.389Z,101359.00
2023-04-30T19:56:52.679Z,101341.00
2023-04-30T19:59:20.581Z,101349.00
2023-04-30T20:01:48.782Z,101357.00
2023-04-30T20:04:16.620Z,101345.00
2023-04-30T20:06:44.772Z,101340.00
2023-04-30T20:09:12.746Z,101349.00
2023-04-30T20:11:40.450Z,101347.00
2023-04-30T20:14:09.515Z,101351.00
2023-04-30T20:16:37.634Z,101347.00
2023-04-30T20:19:05.553Z,101341.00
2023-04-30T20:21:33.262Z,101336.00
2023-04-30T20:24:01.026Z,101347.00
2023-04-30T20:26:29.229Z,101328.00
2023-04-30T20:28:57.185Z,101329.00
2023-04-30T20:31:31.121Z,101316.00
2023-04-30T20:33:59.495Z,101334.00
2023-04-30T20:36:31.491Z,101334.00
2023-04-30T20:38:59.312Z,101335.00
2023-04-30T20:41:28.412Z,101328.00
2023-04-30T20:43:56.774Z,101324.00
2023-04-30T20:46:28.216Z,101324.00
2023-04-30T20:49:02.439Z,101328.00
2023-04-30T20:51:30.352Z,101318.00
2023-04-30T20:53:58.074Z,101324.00
2023-04-30T20:56:26.036Z,101335.00
2023-04-30T20:58:54.500Z,101317.00
2023-04-30T21:01:22.532Z,101318.00
2023-04-30T21:03:51.706Z,101315.00
2023-04-30T21:06:19.844Z,101311.00
2023-04-30T21:08:48.008Z,101308.00
2023-04-30T21:11:15.797Z,101313.00
2023-04-30T21:13:44.063Z,101314.00
2023-04-30T21:16:11.810Z,101306.00
2023-04-30T21:18:39.546Z,101298.00
2023-04-30T21:21:09.758Z,101303.00
2023-04-30T21:23:37.694Z,101303.00
2023-04-30T21:26:05.468Z,101306.00
2023-04-30T21:28:33.697Z,101295.00
2023-04-30T21:31:05.867Z,101301.00
2023-04-30T21:33:33.842Z,101294.00
2023-04-30T21:36:02.569Z,101305.00
2023-04-30T21:38:32.559Z,101304.00
2023-04-30T21:41:00.302Z,101292.00
2023-04-30T21:43:28.198Z,101303.00
2023-04-30T21:45:56.432Z,101296.00
2023-04-30T21:48:24.104Z,101304.00
2023-04-30T21:50:51.839Z,101293.00
2023-04-30T21:53:19.505Z,101291.00
2023-04-30T21:55:49.577Z,101292.00
2023-04-30T21:58:18.461Z,101274.00
2023-04-30T22:00:46.449Z,101292.00
2023-04-30T22:03:15.954Z,101286.00
2023-04-30T22:05:44.061Z,101297.00
2023-04-30T22:08:11.772Z,101286.00
2023-04-30T22:10:39.600Z,101278.00
2023-04-30T22:13:08.667Z,101276.00
2023-04-30T22:15:47.096Z,101290.00
2023-04-30T22:18:16.118Z,101275.00
2023-04-30T22:20:43.892Z,101278.00
2023-04-30T22:23:11.688Z,101278.00
2023-04-30T22:25:39.608Z,101283.00
2023-04-30T22:28:10.181Z,101271.00
2023-04-30T22:30:38.331Z,101285.00
2023-04-30T22:33:06.174Z,101271.00
2023-04-30T22:35:38.018Z,101274.00
2023-04-30T22:38:05.827Z,101287.00
2023-04-30T22:40:34.230Z,101282.00
2023-04-30T22:43:02.570Z,101274.00
2023-04-30T22:45:31.846Z,101276.00
2023-04-30T22:48:01.786Z,101276.00
2023-04-30T22:50:31.161Z,101273.00
2023-04-30T22:52:59.282Z,101282.00
2023-04-30T22:55:27.578Z,101273.00
2023-04-30T22:57:55.303Z,101261.00
2023-04-30T23:00:24.170Z,101266.00
2023-04-30T23:02:53.596Z,101266.00
2023-04-30T23:05:21.482Z,101251.00
2023-04-30T23:07:49.591Z,101263.00
2023-04-30T23:10:17.878Z,101251.00
2023-04-30T23:12:45.567Z,101252.00
2023-04-30T23:15:13.474Z,101249.00
2023-04-30T23:17:41.423Z,101252.00
2023-04-30T23:20:11.407Z,101239.00
2023-04-30T23:22:39.127Z,101254.00
2023-04-30T23:25:07.391Z,101255.00
2023-04-30T23:27:35.306Z,101251.00
2023-04-30T23:30:03.474Z,101242.00
2023-04-30T23:32:31.431Z,101243.00
2023-04-30T23:34:59.238Z,101240.00
2023-04-30T23:37:28.292Z,101248.00
2023-04-30T23:39:56.346Z,101238.00
2023-04-30T23:42:24.429Z,101243.00
2023-04-30T23:44:52.126Z,101245.00
2023-04-30T23:47:19.895Z,101235.00
2023-04-30T23:49:47.630Z,101236.00
2023-04-30T23:52:15.477Z,101237.00
2023-04-30T23:54:44.603Z,101232.00
2023-04-30T23:57:12.321Z,101225.00
2023-04-30T23:59:40.139Z,101237.00
